This is the latest recevied weather packets stored in our database for station/object JA3QOS-13. If no packets are shown the sender has not sent any weather packets the latest 10 day(s).
| Time | Temp. | Humidity | Pressure | Rain* | Wind** | Luminosity | Snow |
|---|---|---|---|---|---|---|---|
| 1788165003 | 27.22° C | 89% | 1013.4 hPa | 0 mm | - | - | - |
| 1788163204 | 29.44° C | 81% | 1013.2 hPa | 0 mm | - | - | - |
| 1788161403 | 30° C | 79% | 1012.8 hPa | 0 mm | - | - | - |
| 1788159604 | 31.11° C | 75% | 1012.6 hPa | 0 mm | - | - | - |
| 1788157803 | 31.67° C | 76% | 1012.5 hPa | 0 mm | - | - | - |
| 1788156003 | 32.22° C | 74% | 1012.3 hPa | 0 mm | - | - | - |
| 1788154204 | 33.33° C | 66% | 1012.5 hPa | 0 mm | - | - | - |
| 1788152403 | 32.22° C | 68% | 1012.4 hPa | 0 mm | - | - | - |
| 1788150604 | 32.22° C | 69% | 1012.8 hPa | 0 mm | - | - | - |
| 1788148803 | 32.22° C | 73% | 1013 hPa | 0 mm | - | - | - |
| 1788147003 | 32.22° C | 68% | 1013.2 hPa | 0 mm | - | - | - |
| 1788145204 | 31.67° C | 75% | 1013.6 hPa | 0 mm | - | - | - |
| 1788143403 | 30.56° C | 75% | 1013.5 hPa | 0 mm | - | - | - |
| 1788141603 | 31.11° C | 77% | 1013.9 hPa | 0 mm | - | - | - |
| 1788139804 | 29.44° C | 78% | 1013.8 hPa | 0 mm | - | - | - |
| 1788138003 | 28.33° C | 83% | 1013.7 hPa | 0 mm | - | - | - |
| 1788136203 | 27.78° C | 88% | 1013.7 hPa | 0 mm | - | - | - |
| 1788134409 | 26.11° C | 93% | 1013.3 hPa | 0 mm | - | - | - |
| 1788132604 | 25° C | 98% | 1013.4 hPa | 0 mm | - | - | - |
| 1788130804 | 23.89° C | 99% | 1013.3 hPa | 0 mm | - | - | - |
| 1788129004 | 23.33° C | 99% | 1013 hPa | 0 mm | - | - | - |
| 1788127203 | 22.78° C | 99% | 1013.1 hPa | 0 mm | - | - | - |
| 1788125403 | 22.78° C | 99% | 1012.8 hPa | 0 mm | - | - | - |
| 1788123604 | 22.22° C | 99% | 1012.8 hPa | 0 mm | - | - | - |
| 1788121803 | 22.22° C | 99% | 1012.7 hPa | 0 mm | - | - | - |
* Rain latest hour (hover to see other rain measurements)
** Current wind speed in m/s (hover to see current wind gust speed)